createdAt,value
2018-08-17T00:00:19.268Z,1009.12
2018-08-17T00:02:12.205Z,1009.10
2018-08-17T00:03:12.205Z,1009.10
2018-08-17T00:05:05.118Z,1009.06
2018-08-17T00:06:05.140Z,1009.07
2018-08-17T00:07:58.078Z,1009.01
2018-08-17T00:08:58.085Z,1009.01
2018-08-17T00:10:50.997Z,1008.99
2018-08-17T00:11:51.043Z,1009.00
2018-08-17T00:13:43.959Z,1008.99
2018-08-17T00:14:43.959Z,1008.98
2018-08-17T00:16:36.866Z,1008.88
2018-08-17T00:17:36.889Z,1008.94
2018-08-17T00:19:29.820Z,1008.91
2018-08-17T00:20:29.824Z,1008.95
2018-08-17T00:22:22.761Z,1008.91
2018-08-17T00:23:22.758Z,1008.90
2018-08-17T00:25:16.162Z,1008.88
2018-08-17T00:26:16.189Z,1008.89
2018-08-17T00:28:09.124Z,1008.86
2018-08-17T00:29:09.121Z,1008.86
2018-08-17T00:31:02.035Z,1008.83
2018-08-17T00:32:02.060Z,1008.86
2018-08-17T00:33:54.994Z,1008.85
2018-08-17T00:34:54.996Z,1008.82
2018-08-17T00:36:47.912Z,1008.85
2018-08-17T00:37:47.938Z,1008.79
2018-08-17T00:39:40.877Z,1008.76
2018-08-17T00:40:40.881Z,1008.78
2018-08-17T00:42:33.813Z,1008.79
2018-08-17T00:43:33.822Z,1008.75
2018-08-17T00:45:26.729Z,1008.71
2018-08-17T00:46:26.754Z,1008.73
2018-08-17T00:48:19.683Z,1008.77
2018-08-17T00:49:19.686Z,1008.73
2018-08-17T00:51:12.599Z,1008.72
2018-08-17T00:52:12.621Z,1008.71
2018-08-17T00:54:05.551Z,1008.72
2018-08-17T00:55:05.553Z,1008.67
2018-08-17T00:56:58.476Z,1008.72
2018-08-17T00:57:58.497Z,1008.73
2018-08-17T00:59:51.430Z,1008.75
2018-08-17T01:00:51.432Z,1008.76
2018-08-17T01:02:44.505Z,1008.79
2018-08-17T01:03:44.509Z,1008.80
2018-08-17T01:05:37.637Z,1008.80
2018-08-17T01:06:37.659Z,1008.81
2018-08-17T01:08:30.593Z,1008.76
2018-08-17T01:09:30.596Z,1008.79
2018-08-17T01:11:23.509Z,1008.78
2018-08-17T01:12:23.528Z,1008.72
2018-08-17T01:14:16.465Z,1008.71
2018-08-17T01:15:16.465Z,1008.72
2018-08-17T01:17:09.374Z,1008.75
2018-08-17T01:18:09.398Z,1008.74
2018-08-17T01:20:02.341Z,1008.76
2018-08-17T01:21:02.341Z,1008.74
2018-08-17T01:22:55.273Z,1008.74
2018-08-17T01:23:55.276Z,1008.76
2018-08-17T01:25:48.187Z,1008.76
2018-08-17T01:26:48.210Z,1008.76
2018-08-17T01:28:41.142Z,1008.80
2018-08-17T01:29:41.147Z,1008.77
2018-08-17T01:31:34.057Z,1008.83
2018-08-17T01:32:34.078Z,1008.85
2018-08-17T01:34:27.011Z,1008.87
2018-08-17T01:35:27.014Z,1008.85
2018-08-17T01:37:20.123Z,1008.89
2018-08-17T01:38:20.152Z,1008.82
2018-08-17T01:40:13.082Z,1008.83
2018-08-17T01:41:13.081Z,1008.84
2018-08-17T01:43:06.015Z,1008.90
2018-08-17T01:44:06.019Z,1008.88
2018-08-17T01:45:58.929Z,1008.93
2018-08-17T01:46:58.953Z,1008.95
2018-08-17T01:48:51.886Z,1008.99
2018-08-17T01:49:51.887Z,1008.96
2018-08-17T01:51:44.799Z,1008.98
2018-08-17T01:52:44.822Z,1009.00
2018-08-17T01:54:37.759Z,1009.00
2018-08-17T01:55:37.756Z,1009.00
2018-08-17T01:57:30.668Z,1009.07
2018-08-17T01:58:30.690Z,1009.06
2018-08-17T02:00:23.623Z,1009.10
2018-08-17T02:01:23.627Z,1009.09
2018-08-17T02:03:16.560Z,1009.14
2018-08-17T02:04:16.560Z,1009.15
2018-08-17T02:06:09.479Z,1009.15
2018-08-17T02:07:09.505Z,1009.19
2018-08-17T02:09:02.437Z,1009.22
2018-08-17T02:10:02.440Z,1009.25
2018-08-17T02:11:55.352Z,1009.28
2018-08-17T02:12:55.377Z,1009.31
2018-08-17T02:14:48.364Z,1009.32
2018-08-17T02:15:48.310Z,1009.33
2018-08-17T02:17:41.223Z,1009.38
2018-08-17T02:18:41.248Z,1009.39
2018-08-17T02:20:34.179Z,1009.45
2018-08-17T02:21:34.181Z,1009.50
2018-08-17T02:23:27.121Z,1009.48
2018-08-17T02:24:27.178Z,1009.50
2018-08-17T02:26:20.030Z,1009.43
2018-08-17T02:27:20.053Z,1009.47
2018-08-17T02:29:12.995Z,1009.49
2018-08-17T02:30:12.994Z,1009.49
2018-08-17T02:32:05.902Z,1009.46
2018-08-17T02:33:05.923Z,1009.45
2018-08-17T02:34:58.864Z,1009.45
2018-08-17T02:35:58.866Z,1009.43
2018-08-17T02:37:51.774Z,1009.40
2018-08-17T02:38:51.793Z,1009.39
2018-08-17T02:40:44.731Z,1009.38
2018-08-17T02:41:44.732Z,1009.40
2018-08-17T02:43:37.670Z,1009.38
2018-08-17T02:44:37.662Z,1009.38
2018-08-17T02:46:30.576Z,1009.42
2018-08-17T02:47:30.597Z,1009.43
2018-08-17T02:49:23.532Z,1009.45
2018-08-17T02:50:23.534Z,1009.47
2018-08-17T02:52:16.450Z,1009.42
2018-08-17T02:53:16.469Z,1009.39
2018-08-17T02:55:09.400Z,1009.37
2018-08-17T02:56:09.403Z,1009.40
2018-08-17T02:58:02.314Z,1009.45
2018-08-17T02:59:02.338Z,1009.54
2018-08-17T03:00:55.267Z,1009.56
2018-08-17T03:01:55.269Z,1009.55
2018-08-17T03:03:48.211Z,1009.56
2018-08-17T03:04:48.202Z,1009.61
2018-08-17T03:06:41.117Z,1009.66
2018-08-17T03:07:41.136Z,1009.72
2018-08-17T03:09:34.068Z,1009.72
2018-08-17T03:10:34.071Z,1009.74
2018-08-17T03:12:26.983Z,1009.73
2018-08-17T03:13:27.010Z,1009.76
2018-08-17T03:15:19.941Z,1009.77
2018-08-17T03:16:19.943Z,1009.83
2018-08-17T03:18:12.849Z,1009.87
2018-08-17T03:19:12.872Z,1009.87
2018-08-17T03:21:05.814Z,1009.85
2018-08-17T03:22:05.814Z,1009.89
2018-08-17T03:23:58.720Z,1009.85
2018-08-17T03:24:58.739Z,1009.85
2018-08-17T03:26:51.669Z,1009.83
2018-08-17T03:27:51.669Z,1009.83
2018-08-17T03:29:44.610Z,1009.80
2018-08-17T03:30:44.603Z,1009.82
2018-08-17T03:32:37.513Z,1009.81
2018-08-17T03:33:37.536Z,1009.86
2018-08-17T03:35:30.468Z,1009.88
2018-08-17T03:36:30.469Z,1009.91
2018-08-17T03:38:23.379Z,1009.98
2018-08-17T03:39:23.401Z,1009.97
2018-08-17T03:41:16.334Z,1010.00
2018-08-17T03:42:16.335Z,1009.99
2018-08-17T03:44:09.243Z,1009.92
2018-08-17T03:45:09.267Z,1009.95
2018-08-17T03:47:02.198Z,1009.95
2018-08-17T03:48:02.199Z,1010.03
2018-08-17T03:49:55.130Z,1010.07
2018-08-17T03:50:55.131Z,1010.03
2018-08-17T03:52:48.041Z,1010.00
2018-08-17T03:53:48.062Z,1009.95
2018-08-17T03:55:40.994Z,1009.95
2018-08-17T03:56:40.997Z,1009.94
2018-08-17T03:58:33.953Z,1010.02
2018-08-17T03:59:33.925Z,1009.96
2018-08-17T04:01:26.857Z,1010.03
2018-08-17T04:02:26.857Z,1009.99
2018-08-17T04:04:19.773Z,1010.02
2018-08-17T04:05:19.790Z,1010.02
2018-08-17T04:07:12.732Z,1009.99
2018-08-17T04:08:12.735Z,1009.99
2018-08-17T04:10:05.658Z,1010.02
2018-08-17T04:11:05.661Z,1010.02
2018-08-17T04:12:58.569Z,1010.09
2018-08-17T04:13:58.592Z,1010.16
2018-08-17T04:15:51.523Z,1010.15
2018-08-17T04:16:51.528Z,1010.12
2018-08-17T04:18:44.484Z,1010.16
2018-08-17T04:19:44.457Z,1010.17
2018-08-17T04:21:37.391Z,1010.11
2018-08-17T04:22:37.395Z,1010.14
2018-08-17T04:24:30.448Z,1010.21
2018-08-17T04:25:30.468Z,1010.26
2018-08-17T04:27:23.620Z,1010.29
2018-08-17T04:28:23.625Z,1010.30
2018-08-17T04:30:16.554Z,1010.31
2018-08-17T04:31:16.556Z,1010.32
2018-08-17T04:33:09.466Z,1010.29
2018-08-17T04:34:09.488Z,1010.29
2018-08-17T04:36:02.431Z,1010.27
2018-08-17T04:37:02.426Z,1010.25
2018-08-17T04:38:55.331Z,1010.28
2018-08-17T04:39:55.352Z,1010.28
2018-08-17T04:41:48.295Z,1010.29
2018-08-17T04:42:48.296Z,1010.32
2018-08-17T04:44:41.201Z,1010.33
2018-08-17T04:45:41.225Z,1010.37
2018-08-17T04:47:34.155Z,1010.46
2018-08-17T04:48:34.159Z,1010.48
2018-08-17T04:50:27.091Z,1010.55
2018-08-17T04:51:27.108Z,1010.53
2018-08-17T04:53:20.003Z,1010.53
2018-08-17T04:54:20.023Z,1010.54
2018-08-17T04:56:12.965Z,1010.60
2018-08-17T04:57:12.970Z,1010.62
2018-08-17T04:59:05.879Z,1010.63
2018-08-17T05:00:05.906Z,1010.62
2018-08-17T05:01:58.835Z,1010.63
2018-08-17T05:02:58.837Z,1010.59
2018-08-17T05:04:51.910Z,1010.57
2018-08-17T05:05:51.932Z,1010.59
2018-08-17T05:07:44.874Z,1010.58
2018-08-17T05:08:44.906Z,1010.59
2018-08-17T05:10:37.799Z,1010.56
2018-08-17T05:11:37.802Z,1010.55
2018-08-17T05:13:30.715Z,1010.64
2018-08-17T05:14:30.740Z,1010.66
2018-08-17T05:16:23.669Z,1010.71
2018-08-17T05:17:23.692Z,1010.75
2018-08-17T05:19:16.781Z,1010.80
2018-08-17T05:20:16.813Z,1010.81
2018-08-17T05:22:09.750Z,1010.77
2018-08-17T05:23:09.798Z,1010.80
2018-08-17T05:25:02.662Z,1010.74
2018-08-17T05:26:02.683Z,1010.72
2018-08-17T05:27:55.617Z,1010.67
2018-08-17T05:28:55.620Z,1010.67
2018-08-17T05:30:48.552Z,1010.70
2018-08-17T05:31:48.555Z,1010.68
2018-08-17T05:33:41.471Z,1010.72
2018-08-17T05:34:41.491Z,1010.67
2018-08-17T05:36:34.509Z,1010.68
2018-08-17T05:37:34.424Z,1010.70
2018-08-17T05:39:27.339Z,1010.69
2018-08-17T05:40:27.367Z,1010.69
2018-08-17T05:42:20.437Z,1010.66
2018-08-17T05:43:20.441Z,1010.69
2018-08-17T05:45:13.380Z,1010.77
2018-08-17T05:46:13.385Z,1010.79
2018-08-17T05:48:06.327Z,1010.88
2018-08-17T05:49:06.321Z,1010.90
2018-08-17T05:50:59.269Z,1010.95
2018-08-17T05:51:59.258Z,1010.99
2018-08-17T05:53:52.176Z,1011.11
2018-08-17T05:54:52.202Z,1011.14
2018-08-17T05:56:45.193Z,1011.11
2018-08-17T05:57:45.135Z,1011.09
2018-08-17T05:59:38.058Z,1011.08
2018-08-17T06:00:38.072Z,1011.16
2018-08-17T06:02:31.006Z,1011.27
2018-08-17T06:03:31.011Z,1011.23
2018-08-17T06:05:24.139Z,1011.15
2018-08-17T06:06:24.163Z,1011.09
2018-08-17T06:08:17.096Z,1011.05
2018-08-17T06:09:17.098Z,1011.10
2018-08-17T06:11:10.158Z,1011.12
2018-08-17T06:12:10.043Z,1011.10
2018-08-17T06:14:02.951Z,1011.17
2018-08-17T06:15:02.973Z,1011.16
2018-08-17T06:16:55.907Z,1011.21
2018-08-17T06:17:55.916Z,1011.23
2018-08-17T06:19:49.318Z,1011.27
2018-08-17T06:20:49.390Z,1011.23
2018-08-17T06:22:42.286Z,1011.21
2018-08-17T06:23:42.295Z,1011.27
2018-08-17T06:25:35.199Z,1011.28
2018-08-17T06:26:35.220Z,1011.29
2018-08-17T06:28:28.155Z,1011.29
2018-08-17T06:29:28.161Z,1011.33
2018-08-17T06:31:21.096Z,1011.37
2018-08-17T06:32:21.101Z,1011.41
2018-08-17T06:34:14.011Z,1011.43
2018-08-17T06:35:14.034Z,1011.46
2018-08-17T06:37:07.513Z,1011.47
2018-08-17T06:38:07.467Z,1011.48
2018-08-17T06:40:00.406Z,1011.44
2018-08-17T06:41:00.409Z,1011.45
2018-08-17T06:42:53.343Z,1011.43
2018-08-17T06:43:53.350Z,1011.46
2018-08-17T06:45:46.269Z,1011.50
2018-08-17T06:46:46.292Z,1011.52
2018-08-17T06:48:39.222Z,1011.46
2018-08-17T06:49:39.227Z,1011.51
2018-08-17T06:51:32.215Z,1011.52
2018-08-17T06:52:32.172Z,1011.52
2018-08-17T06:54:25.575Z,1011.52
2018-08-17T06:55:25.600Z,1011.50
2018-08-17T06:57:19.110Z,1011.50
2018-08-17T06:58:19.035Z,1011.48
2018-08-17T07:00:11.961Z,1011.54
2018-08-17T07:01:12.008Z,1011.54
2018-08-17T07:03:04.910Z,1011.61
2018-08-17T07:04:04.913Z,1011.66
2018-08-17T07:05:57.834Z,1011.76
2018-08-17T07:06:57.854Z,1011.86
2018-08-17T07:08:51.081Z,1011.98
2018-08-17T07:09:51.014Z,1011.98
2018-08-17T07:11:43.950Z,1011.93
2018-08-17T07:12:43.945Z,1011.92
2018-08-17T07:14:36.860Z,1011.79
2018-08-17T07:15:36.888Z,1011.78
2018-08-17T07:17:29.829Z,1011.88
2018-08-17T07:18:29.830Z,1011.92
2018-08-17T07:20:22.740Z,1011.95
2018-08-17T07:21:22.765Z,1011.98
2018-08-17T07:23:15.699Z,1011.97
2018-08-17T07:24:15.702Z,1011.98
2018-08-17T07:26:08.618Z,1012.00
2018-08-17T07:27:08.638Z,1011.97
2018-08-17T07:29:01.780Z,1011.96
2018-08-17T07:30:01.792Z,1011.96
2018-08-17T07:31:54.728Z,1011.99
2018-08-17T07:32:54.730Z,1011.96
2018-08-17T07:34:47.652Z,1011.95
2018-08-17T07:35:47.706Z,1011.94
2018-08-17T07:37:40.619Z,1011.97
2018-08-17T07:38:40.624Z,1011.96
2018-08-17T07:40:33.538Z,1012.02
2018-08-17T07:41:33.579Z,1012.05
2018-08-17T07:43:26.500Z,1012.12
2018-08-17T07:44:26.503Z,1012.20
2018-08-17T07:46:19.424Z,1012.22
2018-08-17T07:47:19.447Z,1012.26
2018-08-17T07:49:12.559Z,1012.32
2018-08-17T07:50:12.564Z,1012.36
2018-08-17T07:52:05.512Z,1012.56
2018-08-17T07:53:05.509Z,1012.59
2018-08-17T07:54:58.424Z,1012.60
2018-08-17T07:55:58.453Z,1012.58
2018-08-17T07:57:51.529Z,1012.55
2018-08-17T07:58:51.536Z,1012.55
2018-08-17T08:00:44.447Z,1012.58
2018-08-17T08:01:44.478Z,1012.62
2018-08-17T08:03:37.410Z,1012.65
2018-08-17T08:04:37.417Z,1012.60
2018-08-17T08:06:30.326Z,1012.61
2018-08-17T08:07:30.359Z,1012.63
2018-08-17T08:09:23.778Z,1012.67
2018-08-17T08:10:23.784Z,1012.73
2018-08-17T08:12:16.721Z,1012.73
2018-08-17T08:13:16.728Z,1012.72
2018-08-17T08:15:09.639Z,1012.68
2018-08-17T08:16:09.661Z,1012.64
2018-08-17T08:18:02.606Z,1012.70
2018-08-17T08:19:02.606Z,1012.73
2018-08-17T08:20:55.526Z,1012.64
2018-08-17T08:21:55.550Z,1012.66
2018-08-17T08:23:48.481Z,1012.58
2018-08-17T08:24:48.491Z,1012.55
2018-08-17T08:26:41.401Z,1012.53
2018-08-17T08:27:41.424Z,1012.47
2018-08-17T08:29:34.357Z,1012.46
2018-08-17T08:30:34.363Z,1012.46
2018-08-17T08:32:27.317Z,1012.36
2018-08-17T08:33:27.305Z,1012.32
2018-08-17T08:35:20.220Z,1012.27
2018-08-17T08:36:20.245Z,1012.26
2018-08-17T08:38:13.176Z,1012.21
2018-08-17T08:39:13.179Z,1012.17
2018-08-17T08:41:06.098Z,1012.16
2018-08-17T08:42:06.125Z,1012.19
2018-08-17T08:43:59.059Z,1012.19
2018-08-17T08:44:59.061Z,1012.17
2018-08-17T08:46:51.974Z,1012.16
2018-08-17T08:47:52.003Z,1012.16
2018-08-17T08:49:44.934Z,1012.07
2018-08-17T08:50:44.943Z,1012.07
2018-08-17T08:52:37.872Z,1012.07
2018-08-17T08:53:37.880Z,1012.12
2018-08-17T08:55:30.799Z,1012.11
2018-08-17T08:56:30.818Z,1012.11
2018-08-17T08:58:23.747Z,1012.29
2018-08-17T08:59:23.751Z,1012.33
2018-08-17T09:01:16.670Z,1012.28
2018-08-17T09:02:16.696Z,1012.21
2018-08-17T09:04:09.627Z,1012.07
2018-08-17T09:05:09.637Z,1012.00
2018-08-17T09:07:02.545Z,1011.83
2018-08-17T09:08:02.611Z,1011.76
2018-08-17T09:09:55.501Z,1011.79
2018-08-17T09:10:55.506Z,1011.81
2018-08-17T09:12:48.455Z,1011.84
2018-08-17T09:13:48.523Z,1011.85
2018-08-17T09:15:41.365Z,1011.83
2018-08-17T09:16:41.392Z,1011.84
2018-08-17T09:18:34.558Z,1011.81
2018-08-17T09:19:34.564Z,1011.78
2018-08-17T09:21:27.485Z,1011.80
2018-08-17T09:22:27.508Z,1011.84
2018-08-17T09:24:20.442Z,1011.88
2018-08-17T09:25:20.450Z,1011.93
2018-08-17T09:27:13.364Z,1011.90
2018-08-17T09:28:13.390Z,1011.94
2018-08-17T09:30:06.364Z,1011.99
2018-08-17T09:31:06.336Z,1012.01
2018-08-17T09:32:59.289Z,1012.12
2018-08-17T09:33:59.281Z,1012.11
2018-08-17T09:35:52.230Z,1012.19
2018-08-17T09:36:52.226Z,1012.19
2018-08-17T09:38:45.162Z,1012.14
2018-08-17T09:39:45.168Z,1012.11
2018-08-17T09:41:38.134Z,1012.11
2018-08-17T09:42:38.113Z,1012.08
2018-08-17T09:44:31.057Z,1012.04
2018-08-17T09:45:31.058Z,1012.10
2018-08-17T09:47:23.979Z,1012.17
2018-08-17T09:48:24.005Z,1012.18
2018-08-17T09:50:16.947Z,1012.23
2018-08-17T09:51:17.007Z,1012.25
2018-08-17T09:53:09.869Z,1012.29
2018-08-17T09:54:09.895Z,1012.29
2018-08-17T09:56:02.833Z,1012.39
2018-08-17T09:57:02.841Z,1012.37
2018-08-17T09:58:55.787Z,1012.39
2018-08-17T09:59:55.786Z,1012.37
2018-08-17T10:01:48.710Z,1012.37
2018-08-17T10:02:48.735Z,1012.40
2018-08-17T10:04:41.681Z,1012.41
2018-08-17T10:05:41.682Z,1012.43
2018-08-17T10:07:34.603Z,1012.42
2018-08-17T10:08:34.629Z,1012.44
2018-08-17T10:10:27.567Z,1012.45
2018-08-17T10:11:27.576Z,1012.46
2018-08-17T10:13:20.493Z,1012.46
2018-08-17T10:14:20.519Z,1012.53
2018-08-17T10:16:13.457Z,1012.58
2018-08-17T10:17:13.490Z,1012.55
2018-08-17T10:19:06.584Z,1012.54
2018-08-17T10:20:06.591Z,1012.58
2018-08-17T10:22:00.078Z,1012.55
2018-08-17T10:22:59.747Z,1012.56
2018-08-17T10:24:52.694Z,1012.57
2018-08-17T10:25:52.695Z,1012.64
2018-08-17T10:27:45.836Z,1012.61
2018-08-17T10:28:45.867Z,1012.62
2018-08-17T10:30:38.809Z,1012.59
2018-08-17T10:31:38.815Z,1012.59
2018-08-17T10:33:31.728Z,1012.60
2018-08-17T10:34:31.757Z,1012.61
2018-08-17T10:36:24.699Z,1012.65
2018-08-17T10:37:24.702Z,1012.66
2018-08-17T10:39:17.641Z,1012.71
2018-08-17T10:40:17.648Z,1012.67
2018-08-17T10:42:10.572Z,1012.69
2018-08-17T10:43:10.599Z,1012.64
2018-08-17T10:45:03.539Z,1012.67
2018-08-17T10:46:03.546Z,1012.66
2018-08-17T10:47:56.464Z,1012.65
2018-08-17T10:48:56.566Z,1012.65
2018-08-17T10:50:49.432Z,1012.61
2018-08-17T10:51:49.440Z,1012.57
2018-08-17T10:53:42.356Z,1012.56
2018-08-17T10:54:42.384Z,1012.52
2018-08-17T10:56:35.319Z,1012.59
2018-08-17T10:57:35.343Z,1012.58
2018-08-17T10:59:28.265Z,1012.56
2018-08-17T11:00:28.276Z,1012.59
2018-08-17T11:02:21.194Z,1012.59
2018-08-17T11:03:21.220Z,1012.58
2018-08-17T11:05:15.167Z,1012.58
2018-08-17T11:06:15.171Z,1012.70
2018-08-17T11:08:08.094Z,1012.55
2018-08-17T11:09:08.119Z,1012.54
2018-08-17T11:11:01.154Z,1012.54
2018-08-17T11:12:01.070Z,1012.58
2018-08-17T11:13:53.999Z,1012.57
2018-08-17T11:14:54.027Z,1012.59
2018-08-17T11:16:46.975Z,1012.60
2018-08-17T11:17:46.979Z,1012.61
2018-08-17T11:19:39.929Z,1012.57
2018-08-17T11:20:39.933Z,1012.60
2018-08-17T11:22:33.848Z,1012.60
2018-08-17T11:23:33.878Z,1012.60
2018-08-17T11:25:26.890Z,1012.71
2018-08-17T11:26:26.899Z,1012.68
2018-08-17T11:28:19.817Z,1012.70
2018-08-17T11:29:19.849Z,1012.71
2018-08-17T11:31:12.840Z,1012.74
2018-08-17T11:32:12.796Z,1012.76
2018-08-17T11:34:05.717Z,1012.67
2018-08-17T11:35:05.743Z,1012.67
2018-08-17T11:36:58.689Z,1012.76
2018-08-17T11:37:58.692Z,1012.78
2018-08-17T11:39:51.633Z,1012.77
2018-08-17T11:40:51.639Z,1012.79
2018-08-17T11:42:44.564Z,1012.80
2018-08-17T11:43:44.588Z,1012.79
2018-08-17T11:45:37.535Z,1012.86
2018-08-17T11:46:37.537Z,1012.89
2018-08-17T11:48:30.606Z,1012.90
2018-08-17T11:49:30.632Z,1012.91
2018-08-17T11:51:23.575Z,1012.92
2018-08-17T11:52:23.581Z,1012.89
2018-08-17T11:54:16.509Z,1012.90
2018-08-17T11:55:16.531Z,1012.91
2018-08-17T11:57:09.471Z,1012.93
2018-08-17T11:58:09.516Z,1012.93
2018-08-17T12:00:02.428Z,1012.95
2018-08-17T12:01:02.480Z,1012.96
2018-08-17T12:02:55.360Z,1012.87
2018-08-17T12:03:55.435Z,1012.99
2018-08-17T12:05:48.312Z,1013.01
2018-08-17T12:06:48.324Z,1013.01
2018-08-17T12:08:41.363Z,1013.04
2018-08-17T12:09:41.276Z,1013.07
2018-08-17T12:11:34.226Z,1013.05
2018-08-17T12:12:34.223Z,1013.08
2018-08-17T12:14:27.147Z,1013.07
2018-08-17T12:15:27.174Z,1013.11
2018-08-17T12:17:20.123Z,1013.09
2018-08-17T12:18:20.125Z,1013.12
2018-08-17T12:20:13.067Z,1013.11
2018-08-17T12:21:13.079Z,1013.07
2018-08-17T12:23:05.992Z,1013.08
2018-08-17T12:24:06.033Z,1013.13
2018-08-17T12:25:58.961Z,1013.08
2018-08-17T12:26:58.969Z,1013.10
2018-08-17T12:28:51.886Z,1013.14
2018-08-17T12:29:51.916Z,1013.16
2018-08-17T12:31:44.856Z,1013.20
2018-08-17T12:32:44.864Z,1013.14
2018-08-17T12:34:37.786Z,1013.17
2018-08-17T12:35:37.810Z,1013.13
2018-08-17T12:37:30.751Z,1013.20
2018-08-17T12:38:30.761Z,1013.22
2018-08-17T12:40:23.700Z,1013.17
2018-08-17T12:41:23.753Z,1013.23
2018-08-17T12:43:16.662Z,1013.21
2018-08-17T12:44:16.659Z,1013.16
2018-08-17T12:46:09.608Z,1013.17
2018-08-17T12:47:09.608Z,1013.21
2018-08-17T12:49:02.733Z,1013.19
2018-08-17T12:50:02.764Z,1013.15
2018-08-17T12:51:55.717Z,1013.17
2018-08-17T12:52:55.724Z,1013.13
2018-08-17T12:54:48.650Z,1013.16
2018-08-17T12:55:48.672Z,1013.15
2018-08-17T12:57:41.616Z,1013.16
2018-08-17T12:58:41.623Z,1013.12
2018-08-17T13:00:34.602Z,1013.12
2018-08-17T13:01:34.578Z,1013.14
2018-08-17T13:03:27.496Z,1013.14
2018-08-17T13:04:27.537Z,1013.13
2018-08-17T13:06:20.464Z,1013.13
2018-08-17T13:07:20.477Z,1013.17
2018-08-17T13:09:13.396Z,1013.15
2018-08-17T13:10:13.422Z,1013.20
2018-08-17T13:12:06.431Z,1013.22
2018-08-17T13:13:06.376Z,1013.16
2018-08-17T13:14:59.299Z,1013.16
2018-08-17T13:15:59.326Z,1013.15
2018-08-17T13:17:52.265Z,1013.16
2018-08-17T13:18:52.274Z,1013.10
2018-08-17T13:20:45.221Z,1013.11
2018-08-17T13:21:45.223Z,1013.18
2018-08-17T13:23:38.146Z,1013.18
2018-08-17T13:24:38.173Z,1013.21
2018-08-17T13:26:31.126Z,1013.19
2018-08-17T13:27:31.123Z,1013.18
2018-08-17T13:29:24.051Z,1013.27
2018-08-17T13:30:24.077Z,1013.23
2018-08-17T13:32:17.027Z,1013.22
2018-08-17T13:33:17.030Z,1013.19
2018-08-17T13:35:09.955Z,1013.14
2018-08-17T13:36:10.062Z,1013.18
2018-08-17T13:38:02.945Z,1013.27
2018-08-17T13:39:02.971Z,1013.27
2018-08-17T13:40:56.368Z,1013.26
2018-08-17T13:41:56.376Z,1013.24
2018-08-17T13:43:49.295Z,1013.22
2018-08-17T13:44:49.423Z,1013.21
2018-08-17T13:46:42.614Z,1013.27
2018-08-17T13:47:42.299Z,1013.30
2018-08-17T13:49:35.223Z,1013.30
2018-08-17T13:50:35.253Z,1013.32
2018-08-17T13:52:28.230Z,1013.22
2018-08-17T13:53:28.228Z,1013.23
2018-08-17T13:55:21.207Z,1013.29
2018-08-17T13:56:21.201Z,1013.27
2018-08-17T13:58:14.169Z,1013.22
2018-08-17T13:59:14.168Z,1013.24
2018-08-17T14:01:07.147Z,1013.28
2018-08-17T14:02:07.239Z,1013.27
2018-08-17T14:04:00.059Z,1013.26
2018-08-17T14:05:00.105Z,1013.30
2018-08-17T14:06:53.047Z,1013.27
2018-08-17T14:07:53.055Z,1013.26
2018-08-17T14:09:45.979Z,1013.24
2018-08-17T14:10:46.008Z,1013.27
2018-08-17T14:12:39.034Z,1013.27
2018-08-17T14:13:38.984Z,1013.29
2018-08-17T14:15:33.469Z,1013.23
2018-08-17T14:16:33.431Z,1013.30
2018-08-17T14:18:26.405Z,1013.32
2018-08-17T14:19:26.382Z,1013.31
2018-08-17T14:21:19.329Z,1013.26
2018-08-17T14:22:19.334Z,1013.31
2018-08-17T14:24:12.464Z,1013.29
2018-08-17T14:25:12.495Z,1013.25
2018-08-17T14:27:05.433Z,1013.26
2018-08-17T14:28:05.442Z,1013.25
2018-08-17T14:29:58.359Z,1013.25
2018-08-17T14:30:58.391Z,1013.24
2018-08-17T14:32:51.340Z,1013.26
2018-08-17T14:33:51.340Z,1013.24
2018-08-17T14:35:44.268Z,1013.16
2018-08-17T14:36:44.352Z,1013.21
2018-08-17T14:38:37.551Z,1013.21
2018-08-17T14:39:37.553Z,1013.18
2018-08-17T14:41:30.496Z,1013.20
2018-08-17T14:42:30.556Z,1013.21
2018-08-17T14:44:23.423Z,1013.21
2018-08-17T14:45:23.451Z,1013.22
2018-08-17T14:48:16.491Z,1013.22
2018-08-17T14:50:09.324Z,1013.17
2018-08-17T14:51:09.348Z,1013.19
2018-08-17T14:53:02.297Z,1013.18
2018-08-17T14:54:02.359Z,1013.17
2018-08-17T14:55:56.221Z,1013.15
2018-08-17T14:56:56.277Z,1013.15
2018-08-17T14:58:49.186Z,1013.18
2018-08-17T14:59:49.196Z,1013.16
2018-08-17T15:01:42.136Z,1013.17
2018-08-17T15:02:42.143Z,1013.17
2018-08-17T15:04:35.061Z,1013.10
2018-08-17T15:05:35.090Z,1013.09
2018-08-17T15:07:28.032Z,1013.12
2018-08-17T15:08:28.038Z,1013.12
2018-08-17T15:10:20.963Z,1013.12
2018-08-17T15:11:20.983Z,1013.17
2018-08-17T15:13:14.008Z,1013.15
2018-08-17T15:14:13.933Z,1013.14
2018-08-17T15:16:06.855Z,1013.15
2018-08-17T15:17:06.881Z,1013.16
2018-08-17T15:18:59.821Z,1013.11
2018-08-17T15:19:59.833Z,1013.14
2018-08-17T15:21:52.792Z,1013.10
2018-08-17T15:22:52.774Z,1013.10
2018-08-17T15:24:45.692Z,1013.08
2018-08-17T15:25:45.725Z,1013.05
2018-08-17T15:27:41.158Z,1013.07
2018-08-17T15:28:38.685Z,1013.04
2018-08-17T15:30:31.613Z,1012.99
2018-08-17T15:31:31.640Z,1013.05
2018-08-17T15:33:26.932Z,1013.05
2018-08-17T15:34:26.946Z,1013.07
2018-08-17T15:36:19.807Z,1013.08
2018-08-17T15:37:19.833Z,1013.10
2018-08-17T15:39:12.775Z,1013.03
2018-08-17T15:40:12.782Z,1013.05
2018-08-17T15:42:05.720Z,1013.03
2018-08-17T15:43:05.728Z,1013.02
2018-08-17T15:44:58.647Z,1013.01
2018-08-17T15:45:58.676Z,1013.13
2018-08-17T15:47:51.614Z,1013.11
2018-08-17T15:48:51.626Z,1013.09
2018-08-17T15:50:44.539Z,1013.12
2018-08-17T15:51:44.604Z,1013.08
2018-08-17T15:53:37.510Z,1013.12
2018-08-17T15:54:37.515Z,1013.10
2018-08-17T15:56:30.438Z,1013.09
2018-08-17T15:57:30.488Z,1013.10
2018-08-17T15:59:23.400Z,1013.13
2018-08-17T16:00:23.418Z,1013.11
2018-08-17T16:02:16.381Z,1013.12
2018-08-17T16:03:16.355Z,1013.11
2018-08-17T16:05:09.275Z,1013.12
2018-08-17T16:06:09.303Z,1013.13
2018-08-17T16:08:02.249Z,1013.23
2018-08-17T16:09:02.252Z,1013.23
2018-08-17T16:10:55.171Z,1013.24
2018-08-17T16:11:55.197Z,1013.28
2018-08-17T16:13:48.143Z,1013.26
2018-08-17T16:14:48.146Z,1013.26
2018-08-17T16:16:41.066Z,1013.35
2018-08-17T16:17:41.092Z,1013.28
2018-08-17T16:19:34.052Z,1013.23
2018-08-17T16:20:34.038Z,1013.31
2018-08-17T16:22:26.984Z,1013.25
2018-08-17T16:23:26.992Z,1013.23
2018-08-17T16:25:19.911Z,1013.26
2018-08-17T16:26:19.938Z,1013.30
2018-08-17T16:28:12.873Z,1013.27
2018-08-17T16:29:12.884Z,1013.29
2018-08-17T16:31:05.798Z,1013.27
2018-08-17T16:32:05.827Z,1013.27
2018-08-17T16:33:58.758Z,1013.23
2018-08-17T16:34:58.770Z,1013.24
2018-08-17T16:36:51.683Z,1013.23
2018-08-17T16:37:51.713Z,1013.23
2018-08-17T16:39:44.644Z,1013.22
2018-08-17T16:40:44.656Z,1013.25
2018-08-17T16:42:37.599Z,1013.21
2018-08-17T16:43:37.598Z,1013.22
2018-08-17T16:45:30.513Z,1013.21
2018-08-17T16:46:30.556Z,1013.22
2018-08-17T16:48:23.486Z,1013.18
2018-08-17T16:49:23.491Z,1013.16
2018-08-17T16:51:16.408Z,1013.17
2018-08-17T16:52:16.435Z,1013.15
2018-08-17T16:54:09.373Z,1013.20
2018-08-17T16:55:09.386Z,1013.22
2018-08-17T16:57:02.302Z,1013.20
2018-08-17T16:58:02.325Z,1013.21
2018-08-17T16:59:55.255Z,1013.22
2018-08-17T17:00:55.299Z,1013.22
2018-08-17T17:02:48.217Z,1013.26
2018-08-17T17:03:48.210Z,1013.24
2018-08-17T17:05:41.123Z,1013.23
2018-08-17T17:06:41.155Z,1013.23
2018-08-17T17:08:34.096Z,1013.26
2018-08-17T17:09:34.098Z,1013.25
2018-08-17T17:11:28.017Z,1013.24
2018-08-17T17:12:28.045Z,1013.22
2018-08-17T17:14:20.980Z,1013.24
2018-08-17T17:15:20.989Z,1013.24
2018-08-17T17:17:13.900Z,1013.20
2018-08-17T17:18:13.927Z,1013.22
2018-08-17T17:20:06.898Z,1013.23
2018-08-17T17:21:06.876Z,1013.26
2018-08-17T17:22:59.826Z,1013.26
2018-08-17T17:23:59.824Z,1013.25
2018-08-17T17:25:52.736Z,1013.23
2018-08-17T17:26:52.781Z,1013.18